BGY weather

Il Caravaggio International Airport
Bergamo, Lombardy, Italy

Public forecast

Using degrees Celsius for public forecast. Weather courtesy of forecast.io.

METAR (pilot weather report)

Retrieved 2018/08/14 08:50 UTC (26 minutes ago):

LIME 140850Z VRB03KT 9999 SCT070 24/17 Q1013 NOSIG

TAF (pilot weather forecast)

Retrieved 2018/08/14 06:21 UTC (3 hours ago):

TAF LIME 140500Z 1406/1506 VRB05KT 9999 SCT050 TEMPO 1412/1421 TSRA